createdAt,value
2022-12-07T00:01:26.270Z,-1.90
2022-12-07T00:03:54.853Z,-1.90
2022-12-07T00:06:22.026Z,-1.90
2022-12-07T00:08:49.653Z,-1.90
2022-12-07T00:11:19.299Z,-1.90
2022-12-07T00:13:46.430Z,-2.00
2022-12-07T00:16:19.155Z,-2.00
2022-12-07T00:18:46.758Z,-2.00
2022-12-07T00:21:16.821Z,-1.90
2022-12-07T00:23:45.161Z,-2.00
2022-12-07T00:26:15.121Z,-2.00
2022-12-07T00:28:41.902Z,-2.00
2022-12-07T00:31:11.715Z,-2.00
2022-12-07T00:33:39.493Z,-2.00
2022-12-07T00:36:09.274Z,-2.00
2022-12-07T00:38:37.668Z,-2.00
2022-12-07T00:41:07.626Z,-2.10
2022-12-07T00:43:34.409Z,-2.10
2022-12-07T00:46:01.423Z,-2.00
2022-12-07T00:48:28.397Z,-2.10
2022-12-07T00:50:55.768Z,-2.10
2022-12-07T00:53:22.669Z,-2.10
2022-12-07T00:55:49.851Z,-2.10
2022-12-07T00:58:16.758Z,-2.10
2022-12-07T01:00:44.503Z,-2.10
2022-12-07T01:03:13.677Z,-2.00
2022-12-07T01:05:41.121Z,-2.00
2022-12-07T01:08:08.261Z,-2.00
2022-12-07T01:10:35.261Z,-2.00
2022-12-07T01:13:02.128Z,-2.00
2022-12-07T01:15:28.970Z,-2.00
2022-12-07T01:17:55.944Z,-2.00
2022-12-07T01:20:23.386Z,-2.00
2022-12-07T01:22:50.522Z,-2.00
2022-12-07T01:25:17.508Z,-2.00
2022-12-07T01:27:44.404Z,-2.00
2022-12-07T01:30:12.193Z,-2.00
2022-12-07T01:32:39.473Z,-2.00
2022-12-07T01:35:06.736Z,-1.90
2022-12-07T01:37:40.373Z,-1.90
2022-12-07T01:40:09.133Z,-2.00
2022-12-07T01:42:36.041Z,-1.90
2022-12-07T01:45:26.792Z,-2.00
2022-12-07T01:47:58.581Z,-1.90
2022-12-07T01:50:29.115Z,-2.00
2022-12-07T01:52:58.848Z,-2.00
2022-12-07T01:55:26.158Z,-2.00
2022-12-07T01:57:55.278Z,-2.00
2022-12-07T02:00:22.383Z,-2.00
2022-12-07T02:02:55.705Z,-2.00
2022-12-07T02:05:25.256Z,-2.00
2022-12-07T02:07:53.463Z,-1.90
2022-12-07T02:10:22.354Z,-2.00
2022-12-07T02:12:56.749Z,-2.00
2022-12-07T02:15:29.960Z,-2.00
2022-12-07T02:18:17.530Z,-1.90
2022-12-07T02:20:58.270Z,-2.00
2022-12-07T02:23:33.965Z,-2.00
2022-12-07T02:26:22.507Z,-2.00
2022-12-07T02:29:04.415Z,-2.00
2022-12-07T02:31:32.627Z,-2.00
2022-12-07T02:34:27.196Z,-2.00
2022-12-07T02:37:01.376Z,-2.00
2022-12-07T02:39:40.342Z,-2.00
2022-12-07T02:42:16.411Z,-2.00
2022-12-07T02:44:44.886Z,-2.00
2022-12-07T02:47:15.877Z,-2.00
2022-12-07T02:49:43.740Z,-2.00
2022-12-07T02:52:10.661Z,-2.00
2022-12-07T02:54:37.719Z,-2.00
2022-12-07T02:57:34.345Z,-2.00
2022-12-07T03:00:06.743Z,-2.00
2022-12-07T03:02:59.933Z,-2.00
2022-12-07T03:05:38.747Z,-2.00
2022-12-07T03:08:23.761Z,-2.00
2022-12-07T03:11:06.281Z,-2.00
2022-12-07T03:13:42.159Z,-2.00
2022-12-07T03:16:18.526Z,-2.10
2022-12-07T03:19:12.321Z,-2.10
2022-12-07T03:21:48.501Z,-2.00
2022-12-07T03:24:27.491Z,-2.00
2022-12-07T03:27:08.855Z,-2.10
2022-12-07T03:29:45.013Z,-2.10
2022-12-07T03:32:24.406Z,-2.10
2022-12-07T03:34:59.488Z,-2.10
2022-12-07T03:37:34.340Z,-2.10
2022-12-07T03:40:19.835Z,-2.20
2022-12-07T03:42:47.431Z,-2.20
2022-12-07T03:45:14.924Z,-2.20
2022-12-07T03:47:55.959Z,-2.20
2022-12-07T03:50:39.682Z,-2.20
2022-12-07T03:53:14.132Z,-2.20
2022-12-07T03:55:45.527Z,-2.20
2022-12-07T03:58:16.040Z,-2.20
2022-12-07T04:00:45.263Z,-2.20
2022-12-07T04:03:12.877Z,-2.20
2022-12-07T04:05:40.761Z,-2.20
2022-12-07T04:08:08.077Z,-2.20
2022-12-07T04:10:34.990Z,-2.20
2022-12-07T04:13:02.125Z,-2.20
2022-12-07T04:15:29.038Z,-2.20
2022-12-07T04:17:56.142Z,-2.20
2022-12-07T04:20:23.154Z,-2.20
2022-12-07T04:22:50.169Z,-2.20
2022-12-07T04:25:17.164Z,-2.20
2022-12-07T04:27:43.994Z,-2.10
2022-12-07T04:30:11.148Z,-2.20
2022-12-07T04:32:38.079Z,-2.20
2022-12-07T04:35:06.042Z,-2.20
2022-12-07T04:37:33.178Z,-2.20
2022-12-07T04:40:00.637Z,-2.20
2022-12-07T04:42:27.804Z,-2.20
2022-12-07T04:44:54.659Z,-2.20
2022-12-07T04:47:21.622Z,-2.20
2022-12-07T04:49:48.497Z,-2.20
2022-12-07T04:52:15.454Z,-2.20
2022-12-07T04:54:42.361Z,-2.20
2022-12-07T04:57:09.264Z,-2.20
2022-12-07T04:59:38.793Z,-2.30
2022-12-07T05:02:07.981Z,-2.20
2022-12-07T05:04:34.842Z,-2.30
2022-12-07T05:07:01.686Z,-2.30
2022-12-07T05:09:28.683Z,-2.30
2022-12-07T05:11:55.553Z,-2.30
2022-12-07T05:14:22.644Z,-2.30
2022-12-07T05:16:51.624Z,-2.30
2022-12-07T05:19:20.107Z,-2.30
2022-12-07T05:21:47.340Z,-2.30
2022-12-07T05:24:16.552Z,-2.30
2022-12-07T05:26:44.180Z,-2.30
2022-12-07T05:29:16.498Z,-2.30
2022-12-07T05:31:44.158Z,-2.30
2022-12-07T05:34:13.210Z,-2.30
2022-12-07T05:36:40.177Z,-2.40
2022-12-07T05:39:08.359Z,-2.30
2022-12-07T05:41:53.926Z,-2.30
2022-12-07T05:44:20.912Z,-2.30
2022-12-07T05:46:47.889Z,-2.30
2022-12-07T05:49:14.787Z,-2.30
2022-12-07T05:51:41.800Z,-2.30
2022-12-07T05:54:08.688Z,-2.30
2022-12-07T05:56:35.764Z,-2.40
2022-12-07T05:59:21.651Z,-2.40
2022-12-07T06:01:48.713Z,-2.30
2022-12-07T06:04:15.676Z,-2.30
2022-12-07T06:06:42.670Z,-2.40
2022-12-07T06:09:10.029Z,-2.40
2022-12-07T06:11:55.712Z,-2.40
2022-12-07T06:14:22.563Z,-2.40
2022-12-07T06:16:49.609Z,-2.40
2022-12-07T06:19:16.818Z,-2.50
2022-12-07T06:21:43.897Z,-2.50
2022-12-07T06:24:13.732Z,-2.50
2022-12-07T06:26:41.464Z,-2.50
2022-12-07T06:29:09.687Z,-2.50
2022-12-07T06:31:39.189Z,-2.40
2022-12-07T06:34:09.988Z,-2.40
2022-12-07T06:36:40.063Z,-2.50
2022-12-07T06:39:07.570Z,-2.50
2022-12-07T06:41:34.531Z,-2.50
2022-12-07T06:44:01.450Z,-2.50
2022-12-07T06:46:28.396Z,-2.50
2022-12-07T06:48:55.416Z,-2.50
2022-12-07T06:51:22.656Z,-2.40
2022-12-07T06:53:50.580Z,-2.50
2022-12-07T06:56:17.673Z,-2.40
2022-12-07T06:58:44.772Z,-2.40
2022-12-07T07:01:16.921Z,-2.40
2022-12-07T07:03:45.138Z,-2.40
2022-12-07T07:06:12.876Z,-2.40
2022-12-07T07:08:41.092Z,-2.40
2022-12-07T07:11:09.293Z,-2.40
2022-12-07T07:13:36.515Z,-2.40
2022-12-07T07:16:05.095Z,-2.40
2022-12-07T07:18:35.821Z,-2.40
2022-12-07T07:21:03.828Z,-2.40
2022-12-07T07:23:31.162Z,-2.40
2022-12-07T07:26:02.979Z,-2.40
2022-12-07T07:28:30.083Z,-2.40
2022-12-07T07:30:57.065Z,-2.30
2022-12-07T07:33:24.051Z,-2.30
2022-12-07T07:35:52.491Z,-2.20
2022-12-07T07:38:19.323Z,-2.20
2022-12-07T07:40:46.450Z,-2.20
2022-12-07T07:43:13.325Z,-2.20
2022-12-07T07:45:40.242Z,-2.20
2022-12-07T07:48:07.384Z,-2.20
2022-12-07T07:50:34.256Z,-2.20
2022-12-07T07:53:01.156Z,-2.20
2022-12-07T07:55:28.052Z,-2.20
2022-12-07T07:57:55.693Z,-2.20
2022-12-07T08:00:23.175Z,-2.20
2022-12-07T08:02:50.286Z,-2.20
2022-12-07T08:05:17.798Z,-2.20
2022-12-07T08:07:45.116Z,-2.20
2022-12-07T08:10:14.114Z,-2.20
2022-12-07T08:13:02.983Z,-2.10
2022-12-07T08:15:31.459Z,-2.10
2022-12-07T08:17:58.708Z,-2.10
2022-12-07T08:20:25.728Z,-2.00
2022-12-07T08:22:52.571Z,-2.00
2022-12-07T08:25:19.643Z,-2.00
2022-12-07T08:27:48.076Z,-2.00
2022-12-07T08:30:16.050Z,-1.90
2022-12-07T08:32:43.103Z,-1.90
2022-12-07T08:35:12.981Z,-2.00
2022-12-07T08:37:40.010Z,-1.90
2022-12-07T08:40:08.650Z,-2.00
2022-12-07T08:42:41.119Z,-2.00
2022-12-07T08:45:13.591Z,-2.00
2022-12-07T08:47:45.382Z,-2.00
2022-12-07T08:50:15.133Z,-2.00
2022-12-07T08:52:43.374Z,-2.00
2022-12-07T08:55:12.516Z,-2.00
2022-12-07T08:57:40.449Z,-1.90
2022-12-07T09:00:08.619Z,-1.90
2022-12-07T09:02:36.769Z,-1.90
2022-12-07T09:05:04.118Z,-1.80
2022-12-07T09:07:34.644Z,-1.80
2022-12-07T09:10:03.258Z,-1.70
2022-12-07T09:12:30.328Z,-1.70
2022-12-07T09:14:57.674Z,-1.70
2022-12-07T09:17:24.668Z,-1.70
2022-12-07T09:19:51.557Z,-1.80
2022-12-07T09:22:18.765Z,-1.80
2022-12-07T09:24:46.630Z,-1.80
2022-12-07T09:27:13.696Z,-1.80
2022-12-07T09:29:40.754Z,-1.80
2022-12-07T09:32:11.553Z,-1.80
2022-12-07T09:34:40.396Z,-1.80
2022-12-07T09:37:09.245Z,-1.80
2022-12-07T09:39:43.429Z,-1.80
2022-12-07T09:42:33.935Z,-1.80
2022-12-07T09:45:06.391Z,-1.80
2022-12-07T09:47:37.785Z,-1.90
2022-12-07T09:50:13.085Z,-1.80
2022-12-07T09:52:40.102Z,-1.80
2022-12-07T09:55:28.425Z,-1.80
2022-12-07T09:57:56.175Z,-1.80
2022-12-07T10:00:25.194Z,-1.80
2022-12-07T10:03:00.622Z,-1.70
2022-12-07T10:05:38.166Z,-1.80
2022-12-07T10:08:05.564Z,-1.70
2022-12-07T10:10:38.623Z,-1.70
2022-12-07T10:13:07.003Z,-1.70
2022-12-07T10:15:48.637Z,-1.60
2022-12-07T10:18:42.193Z,-1.60
2022-12-07T10:21:18.582Z,-1.60
2022-12-07T10:24:05.990Z,-1.60
2022-12-07T10:26:48.520Z,-1.50
2022-12-07T10:29:20.386Z,-1.60
2022-12-07T10:31:51.735Z,-1.60
2022-12-07T10:34:27.562Z,-1.60
2022-12-07T10:37:07.480Z,-1.50
2022-12-07T10:39:41.913Z,-1.50
2022-12-07T10:42:16.641Z,-1.50
2022-12-07T10:44:45.999Z,-1.50
2022-12-07T10:47:35.096Z,-1.50
2022-12-07T10:50:26.789Z,-1.60
2022-12-07T10:53:14.859Z,-1.70
2022-12-07T10:56:04.208Z,-1.60
2022-12-07T10:58:52.587Z,-1.60
2022-12-07T11:01:32.337Z,-1.60
2022-12-07T11:04:24.147Z,-1.60
2022-12-07T11:06:55.742Z,-1.70
2022-12-07T11:12:46.160Z,-1.60
2022-12-07T11:15:31.810Z,-1.60
2022-12-07T11:18:35.302Z,-1.60
2022-12-07T11:21:11.368Z,-1.60
2022-12-07T11:24:01.662Z,-1.60
2022-12-07T11:27:00.345Z,-1.70
2022-12-07T11:29:40.655Z,-1.70
2022-12-07T11:32:22.556Z,-1.60
2022-12-07T11:34:55.604Z,-1.70
2022-12-07T11:37:31.580Z,-1.70
2022-12-07T11:40:16.175Z,-1.70
2022-12-07T11:43:05.464Z,-1.70
2022-12-07T11:45:34.977Z,-1.60
2022-12-07T11:48:13.219Z,-1.60
2022-12-07T11:50:55.692Z,-1.60
2022-12-07T11:53:29.148Z,-1.60
2022-12-07T11:56:12.424Z,-1.60
2022-12-07T11:58:42.405Z,-1.60
2022-12-07T12:01:18.206Z,-1.70
2022-12-07T12:03:53.397Z,-1.70
2022-12-07T12:06:22.678Z,-1.80
2022-12-07T12:15:04.091Z,-1.70
2022-12-07T12:17:40.295Z,-1.70
2022-12-07T12:20:39.444Z,-1.70
2022-12-07T12:23:22.086Z,-1.80
2022-12-07T12:25:54.152Z,-1.80
2022-12-07T12:28:33.443Z,-1.80
2022-12-07T12:31:31.634Z,-1.80
2022-12-07T12:34:01.644Z,-1.80
2022-12-07T12:36:31.269Z,-1.80
2022-12-07T12:39:17.236Z,-1.90
2022-12-07T12:41:46.975Z,-1.80
2022-12-07T12:44:16.561Z,-1.80
2022-12-07T12:46:50.562Z,-1.80
2022-12-07T12:49:17.646Z,-1.90
2022-12-07T12:51:48.107Z,-1.80
2022-12-07T12:54:27.914Z,-1.80
2022-12-07T12:57:34.136Z,-1.80
2022-12-07T13:00:16.581Z,-1.90
2022-12-07T13:02:57.978Z,-2.00
2022-12-07T13:05:28.987Z,-2.00
2022-12-07T13:08:12.357Z,-2.10
2022-12-07T13:10:47.783Z,-2.10
2022-12-07T13:13:20.823Z,-2.10
2022-12-07T13:16:09.772Z,-2.10
2022-12-07T13:18:38.069Z,-2.10
2022-12-07T13:21:07.788Z,-2.10
2022-12-07T13:23:37.962Z,-2.10
2022-12-07T13:26:16.912Z,-2.20
2022-12-07T13:29:10.796Z,-2.20
2022-12-07T13:31:46.313Z,-2.20
2022-12-07T13:34:40.259Z,-2.30
2022-12-07T13:37:33.706Z,-2.30
2022-12-07T13:40:22.914Z,-2.30
2022-12-07T13:42:59.487Z,-2.30
2022-12-07T13:45:50.681Z,-2.30
2022-12-07T13:48:31.924Z,-2.30
2022-12-07T13:51:00.267Z,-2.30
2022-12-07T13:53:31.430Z,-2.30
2022-12-07T13:56:02.473Z,-2.30
2022-12-07T13:58:33.159Z,-2.30
2022-12-07T14:01:01.125Z,-2.30
2022-12-07T14:03:32.012Z,-2.30
2022-12-07T14:06:17.416Z,-2.30
2022-12-07T14:08:45.382Z,-2.30
2022-12-07T14:11:18.637Z,-2.30
2022-12-07T14:13:54.936Z,-2.30
2022-12-07T14:16:40.378Z,-2.30
2022-12-07T14:19:46.397Z,-2.20
2022-12-07T14:22:23.736Z,-2.30
2022-12-07T14:24:51.227Z,-2.30
2022-12-07T14:27:31.551Z,-2.30
2022-12-07T14:29:58.526Z,-2.30
2022-12-07T14:32:30.839Z,-2.30
2022-12-07T14:35:11.355Z,-2.30
2022-12-07T14:37:40.032Z,-2.30
2022-12-07T14:40:08.272Z,-2.30
2022-12-07T14:42:36.455Z,-2.30
2022-12-07T14:45:03.774Z,-2.40
2022-12-07T14:50:20.140Z,-2.40
2022-12-07T14:55:43.646Z,-2.30
2022-12-07T14:58:15.972Z,-2.30
2022-12-07T15:00:43.367Z,-2.40
2022-12-07T15:03:10.435Z,-2.40
2022-12-07T15:05:38.423Z,-2.40
2022-12-07T15:08:05.783Z,-2.40
2022-12-07T15:10:34.820Z,-2.50
2022-12-07T15:13:22.570Z,-2.50
2022-12-07T15:15:51.318Z,-2.50
2022-12-07T15:18:19.460Z,-2.50
2022-12-07T15:20:46.963Z,-2.50
2022-12-07T15:23:14.340Z,-2.50
2022-12-07T15:25:45.714Z,-2.50
2022-12-07T15:28:15.407Z,-2.50
2022-12-07T15:30:43.904Z,-2.50
2022-12-07T15:33:13.836Z,-2.50
2022-12-07T15:35:44.140Z,-2.50
2022-12-07T15:38:12.178Z,-2.50
2022-12-07T15:40:40.716Z,-2.50
2022-12-07T15:43:30.334Z,-2.50
2022-12-07T15:45:58.059Z,-2.60
2022-12-07T15:48:29.177Z,-2.50
2022-12-07T15:51:08.286Z,-2.50
2022-12-07T15:53:37.195Z,-2.50
2022-12-07T15:56:10.108Z,-2.50
2022-12-07T15:58:38.828Z,-2.50
2022-12-07T16:01:18.922Z,-2.50
2022-12-07T16:03:46.890Z,-2.60
2022-12-07T16:06:17.285Z,-2.50
2022-12-07T16:08:47.711Z,-2.60
2022-12-07T16:11:15.359Z,-2.50
2022-12-07T16:13:43.082Z,-2.50
2022-12-07T16:16:16.499Z,-2.50
2022-12-07T16:18:47.801Z,-2.50
2022-12-07T16:21:18.155Z,-2.50
2022-12-07T16:23:50.295Z,-2.50
2022-12-07T16:26:19.856Z,-2.50
2022-12-07T16:28:50.150Z,-2.40
2022-12-07T16:31:21.058Z,-2.40
2022-12-07T16:33:48.518Z,-2.40
2022-12-07T16:36:34.036Z,-2.40
2022-12-07T16:39:04.844Z,-2.40
2022-12-07T16:41:32.217Z,-2.50
2022-12-07T16:44:08.247Z,-2.50
2022-12-07T16:46:36.739Z,-2.40
2022-12-07T16:49:04.945Z,-2.40
2022-12-07T16:51:32.574Z,-2.40
2022-12-07T16:53:59.917Z,-2.40
2022-12-07T16:56:27.972Z,-2.40
2022-12-07T16:58:56.971Z,-2.40
2022-12-07T17:01:24.470Z,-2.40
2022-12-07T17:03:52.795Z,-2.40
2022-12-07T17:06:25.995Z,-2.40
2022-12-07T17:08:53.429Z,-2.40
2022-12-07T17:11:27.046Z,-2.40
2022-12-07T17:14:13.791Z,-2.30
2022-12-07T17:16:41.321Z,-2.40
2022-12-07T17:19:10.073Z,-2.30
2022-12-07T17:21:37.857Z,-2.40
2022-12-07T17:24:07.596Z,-2.30
2022-12-07T17:26:36.140Z,-2.30
2022-12-07T17:29:07.051Z,-2.30
2022-12-07T17:31:34.825Z,-2.30
2022-12-07T17:34:02.127Z,-2.30
2022-12-07T17:36:31.350Z,-2.30
2022-12-07T17:38:59.177Z,-2.30
2022-12-07T17:41:48.626Z,-2.30
2022-12-07T17:44:18.854Z,-2.20
2022-12-07T17:46:47.566Z,-2.20
2022-12-07T17:49:15.222Z,-2.20
2022-12-07T17:52:01.834Z,-2.20
2022-12-07T17:54:29.601Z,-2.20
2022-12-07T17:56:58.285Z,-2.20
2022-12-07T17:59:25.666Z,-2.20
2022-12-07T18:01:52.914Z,-2.20
2022-12-07T18:04:19.893Z,-2.20
2022-12-07T18:06:50.596Z,-2.20
2022-12-07T18:09:23.027Z,-2.10
2022-12-07T18:11:50.164Z,-2.20
2022-12-07T18:14:17.874Z,-2.10
2022-12-07T18:16:45.020Z,-2.10
2022-12-07T18:19:14.753Z,-2.10
2022-12-07T18:21:42.501Z,-2.10
2022-12-07T18:24:12.964Z,-2.10
2022-12-07T18:26:40.310Z,-2.10
2022-12-07T18:29:08.318Z,-2.00
2022-12-07T18:31:36.793Z,-2.00
2022-12-07T18:34:15.008Z,-2.00
2022-12-07T18:36:46.342Z,-2.00
2022-12-07T18:39:14.489Z,-2.00
2022-12-07T18:41:42.486Z,-2.00
2022-12-07T18:44:10.190Z,-2.00
2022-12-07T18:46:37.052Z,-2.00
2022-12-07T18:49:04.876Z,-1.90
2022-12-07T18:51:32.703Z,-1.90
2022-12-07T18:54:04.737Z,-1.90
2022-12-07T18:56:32.205Z,-1.90
2022-12-07T18:59:22.709Z,-1.90
2022-12-07T19:01:53.427Z,-1.90
2022-12-07T19:04:22.665Z,-1.80
2022-12-07T19:06:51.624Z,-1.80
2022-12-07T19:09:19.793Z,-1.70
2022-12-07T19:11:51.592Z,-1.70
2022-12-07T19:14:48.359Z,-1.70
2022-12-07T19:17:15.453Z,-1.60
2022-12-07T19:19:45.850Z,-1.60
2022-12-07T19:22:19.382Z,-1.50
2022-12-07T19:24:49.837Z,-1.50
2022-12-07T19:27:17.688Z,-1.50
2022-12-07T19:29:45.266Z,-1.50
2022-12-07T19:32:12.791Z,-1.40
2022-12-07T19:34:42.217Z,-1.40
2022-12-07T19:37:12.986Z,-1.40
2022-12-07T19:39:41.320Z,-1.30
2022-12-07T19:42:11.003Z,-1.30
2022-12-07T19:44:38.742Z,-1.30
2022-12-07T19:47:06.064Z,-1.20
2022-12-07T19:49:36.981Z,-1.20
2022-12-07T19:52:08.796Z,-1.20
2022-12-07T19:54:36.428Z,-1.20
2022-12-07T19:57:05.872Z,-1.20
2022-12-07T19:59:33.904Z,-1.20
2022-12-07T20:02:00.791Z,-1.10
2022-12-07T20:04:30.492Z,-1.00
2022-12-07T20:07:01.004Z,-1.10
2022-12-07T20:09:29.246Z,-1.00
2022-12-07T20:12:14.632Z,-1.00
2022-12-07T20:14:43.982Z,-1.00
2022-12-07T20:17:10.986Z,-0.90
2022-12-07T20:19:39.040Z,-0.90
2022-12-07T20:22:06.617Z,-0.80
2022-12-07T20:24:35.208Z,-0.80
2022-12-07T20:27:04.368Z,-0.70
2022-12-07T20:29:32.622Z,-0.70
2022-12-07T20:32:00.155Z,-0.70
2022-12-07T20:34:27.134Z,-0.60
2022-12-07T20:36:54.987Z,-0.60
2022-12-07T20:39:23.748Z,-0.60
2022-12-07T20:42:09.969Z,-0.60
2022-12-07T20:44:36.917Z,-0.60
2022-12-07T20:47:05.445Z,-0.60
2022-12-07T20:49:32.488Z,-0.60
2022-12-07T20:51:59.369Z,-0.60
2022-12-07T20:54:27.930Z,-0.70
2022-12-07T20:56:54.868Z,-0.60
2022-12-07T20:59:21.806Z,-0.60
2022-12-07T21:01:48.822Z,-0.60
2022-12-07T21:04:16.084Z,-0.50
2022-12-07T21:06:43.079Z,-0.50
2022-12-07T21:09:11.375Z,-0.50
2022-12-07T21:11:39.336Z,-0.50
2022-12-07T21:14:06.864Z,-0.40
2022-12-07T21:16:33.791Z,-0.50
2022-12-07T21:19:02.861Z,-0.40
2022-12-07T21:21:31.419Z,-0.40
2022-12-07T21:24:02.482Z,-0.40
2022-12-07T21:26:30.746Z,-0.40
2022-12-07T21:28:57.863Z,-0.40
2022-12-07T21:31:26.929Z,-0.30
2022-12-07T21:33:53.988Z,-0.30
2022-12-07T21:36:24.412Z,-0.30
2022-12-07T21:38:51.605Z,-0.20
2022-12-07T21:41:21.159Z,-0.20
2022-12-07T21:43:48.728Z,-0.20
2022-12-07T21:46:17.875Z,-0.10
2022-12-07T21:48:51.128Z,-0.10
2022-12-07T21:51:21.037Z,-0.10
2022-12-07T21:53:48.996Z,0.00
2022-12-07T21:56:16.318Z,0.00
2022-12-07T21:58:43.555Z,0.00
2022-12-07T22:01:22.495Z,0.00
2022-12-07T22:03:50.325Z,0.10
2022-12-07T22:06:19.959Z,0.10
2022-12-07T22:08:47.090Z,0.10
2022-12-07T22:11:14.951Z,0.20
2022-12-07T22:14:06.687Z,0.20
2022-12-07T22:16:37.305Z,0.20
2022-12-07T22:19:04.221Z,0.20
2022-12-07T22:21:31.989Z,0.20
2022-12-07T22:23:59.140Z,0.20
2022-12-07T22:26:26.035Z,0.20
2022-12-07T22:28:53.266Z,0.30
2022-12-07T22:31:21.204Z,0.20
2022-12-07T22:33:48.407Z,0.30
2022-12-07T22:36:15.645Z,0.30
2022-12-07T22:38:43.338Z,0.40
2022-12-07T22:41:19.476Z,0.40
2022-12-07T22:43:46.444Z,0.40
2022-12-07T22:46:13.385Z,0.40
2022-12-07T22:48:40.252Z,0.40
2022-12-07T22:51:07.199Z,0.40
2022-12-07T22:53:34.048Z,0.40
2022-12-07T22:56:00.921Z,0.40
2022-12-07T22:58:27.837Z,0.50
2022-12-07T23:00:54.838Z,0.50
2022-12-07T23:03:21.819Z,0.50
2022-12-07T23:05:49.704Z,0.60
2022-12-07T23:08:16.988Z,0.60
2022-12-07T23:10:49.034Z,0.60
2022-12-07T23:13:33.550Z,0.60
2022-12-07T23:16:11.642Z,0.70
2022-12-07T23:18:40.604Z,0.80
2022-12-07T23:21:10.344Z,0.70
2022-12-07T23:23:37.216Z,0.80
2022-12-07T23:26:07.196Z,0.80
2022-12-07T23:28:34.185Z,0.80
2022-12-07T23:31:27.491Z,0.80
2022-12-07T23:33:54.384Z,0.90
2022-12-07T23:36:24.158Z,0.90
2022-12-07T23:38:53.361Z,0.90
2022-12-07T23:41:22.800Z,0.90
2022-12-07T23:43:50.265Z,0.90
2022-12-07T23:46:20.351Z,1.00
2022-12-07T23:48:48.969Z,0.90
2022-12-07T23:51:16.892Z,1.00
2022-12-07T23:53:46.191Z,1.60
2022-12-07T23:56:21.666Z,1.00
2022-12-07T23:58:51.185Z,1.00
